Time;durP1;ratioP1;P1;durP2;ratioP2;P2;SDS_P1;SDS_P2;PMS_P1;PMS_P2;Temp;Humidity;BMP_temperature;BMP_pressure;BME280_temperature;BME280_humidity;BME280_pressure;Samples;Min_cycle;Max_cycle;Signal;HPM_P1;HPM_P2
2024/01/21 00:00:38;;;;;;;9.95;2.67;;;34.30;99.90;;;;;;4955525;28;20215;-74
2024/01/21 00:03:05;;;;;;;10.85;2.42;;;34.10;99.90;;;;;;4972575;28;20187;-74
2024/01/21 00:05:33;;;;;;;10.77;2.78;;;33.90;99.90;;;;;;4971951;28;20179;-74
2024/01/21 00:08:00;;;;;;;10.45;2.50;;;34.00;99.90;;;;;;4972651;28;20571;-74
2024/01/21 00:10:27;;;;;;;5.53;1.90;;;34.10;99.90;;;;;;4958979;28;20188;-73
2024/01/21 00:12:54;;;;;;;18.42;2.60;;;34.20;99.90;;;;;;4972134;28;20187;-72
2024/01/21 00:15:22;;;;;;;5.25;1.80;;;34.00;99.90;;;;;;4970718;28;20179;-72
2024/01/21 00:17:49;;;;;;;12.07;1.80;;;34.40;99.90;;;;;;4953262;28;20184;-74
2024/01/21 00:20:17;;;;;;;6.22;2.00;;;34.90;99.90;;;;;;4952562;28;20199;-75
2024/01/21 00:22:44;;;;;;;4.68;2.20;;;34.90;99.50;;;;;;4971468;28;20661;-71
2024/01/21 00:25:11;;;;;;;10.05;1.67;;;35.00;96.10;;;;;;4955698;28;20292;-71
2024/01/21 00:27:39;;;;;;;5.70;1.77;;;35.20;91.00;;;;;;4962548;28;20220;-73
2024/01/21 00:30:07;;;;;;;5.35;1.77;;;35.50;89.70;;;;;;4956467;28;20257;-73
2024/01/21 00:32:34;;;;;;;7.13;1.90;;;35.80;89.80;;;;;;4960320;28;20218;-73
2024/01/21 00:35:03;;;;;;;9.20;2.17;;;36.10;88.80;;;;;;4957220;28;20758;-71
2024/01/21 00:37:30;;;;;;;5.70;1.63;;;36.50;76.20;;;;;;4956866;28;20238;-71
2024/01/21 00:39:57;;;;;;;5.88;1.73;;;37.20;77.20;;;;;;4960447;28;20187;-71
2024/01/21 00:45:47;;;;;;;11.43;2.20;;;38.10;66.70;;;;;;4970695;28;20200;-71
2024/01/21 00:48:14;;;;;;;17.85;2.58;;;37.90;67.30;;;;;;4956691;28;20211;-71
2024/01/21 00:50:41;;;;;;;14.75;2.30;;;37.00;63.70;;;;;;4964806;28;20601;-71
2024/01/21 00:53:08;;;;;;;7.05;2.00;;;36.50;73.50;;;;;;4974201;28;20522;-71
2024/01/21 00:55:36;;;;;;;8.38;2.60;;;37.00;69.70;;;;;;4975659;28;20636;-72
2024/01/21 00:58:03;;;;;;;6.15;1.80;;;37.30;60.80;;;;;;4975359;28;20183;-72
2024/01/21 01:00:31;;;;;;;5.30;1.58;;;37.40;57.60;;;;;;4966452;28;20176;-72
2024/01/21 01:02:59;;;;;;;6.15;1.73;;;37.70;47.60;;;;;;4956485;28;20187;-72
2024/01/21 01:05:27;;;;;;;5.97;1.70;;;37.70;40.30;;;;;;4969187;28;20187;-72
2024/01/21 01:07:54;;;;;;;5.43;1.67;;;37.50;52.60;;;;;;4975473;28;20655;-72
2024/01/21 01:10:21;;;;;;;3.10;1.20;;;37.80;43.80;;;;;;4967527;28;20681;-72
2024/01/21 01:12:48;;;;;;;3.33;1.40;;;37.30;37.90;;;;;;4955721;28;20184;-72
2024/01/21 01:15:16;;;;;;;7.65;1.90;;;37.70;40.80;;;;;;4956109;28;20543;-72
2024/01/21 01:17:44;;;;;;;5.45;1.95;;;37.60;39.00;;;;;;4956187;28;20180;-72
2024/01/21 01:20:11;;;;;;;15.68;2.25;;;38.60;36.80;;;;;;4961015;28;20179;-72
2024/01/21 01:22:39;;;;;;;5.78;1.80;;;38.40;36.30;;;;;;4975355;28;20318;-72
2024/01/21 01:25:07;;;;;;;7.65;1.80;;;38.10;43.00;;;;;;4973899;28;20590;-72
2024/01/21 01:27:34;;;;;;;5.13;1.25;;;38.20;31.10;;;;;;4972339;28;20301;-73
2024/01/21 01:33:24;;;;;;;5.32;1.40;;;38.10;23.00;;;;;;4955545;28;20191;-72
2024/01/21 01:35:51;;;;;;;3.25;1.20;;;38.30;26.30;;;;;;4974521;28;20231;-72
2024/01/21 01:38:19;;;;;;;3.20;1.27;;;38.40;21.20;;;;;;4975039;28;20172;-72
2024/01/21 01:40:46;;;;;;;12.20;1.40;;;38.40;18.00;;;;;;4974264;28;20215;-72
2024/01/21 01:43:13;;;;;;;4.00;1.30;;;38.50;19.90;;;;;;4974188;28;20179;-72
2024/01/21 01:45:41;;;;;;;4.75;1.30;;;38.60;16.80;;;;;;4973544;28;20198;-72
2024/01/21 01:48:08;;;;;;;5.97;1.20;;;38.40;16.10;;;;;;4955419;28;20215;-71
2024/01/21 01:50:36;;;;;;;7.40;1.20;;;38.60;18.10;;;;;;4953810;29;20184;-72
2024/01/21 01:53:03;;;;;;;4.53;1.25;;;38.60;18.40;;;;;;4955693;28;20184;-72
2024/01/21 01:55:31;;;;;;;5.10;0.98;;;39.00;11.80;;;;;;4955509;28;20235;-72
2024/01/21 01:57:59;;;;;;;5.65;1.67;;;39.20;15.60;;;;;;4955077;28;20279;-72
2024/01/21 02:00:26;;;;;;;3.78;1.60;;;39.30;18.30;;;;;;4955425;28;20176;-72
2024/01/21 02:02:53;;;;;;;6.68;1.30;;;39.60;15.90;;;;;;4955344;28;20665;-72
2024/01/21 02:05:21;;;;;;;27.60;2.55;;;39.50;10.50;;;;;;4954916;28;20712;-72
2024/01/21 02:07:48;;;;;;;4.90;1.20;;;39.70;8.10;;;;;;4955329;28;20216;-72
2024/01/21 02:10:16;;;;;;;5.38;1.55;;;39.30;5.90;;;;;;4954080;29;20709;-72
2024/01/21 02:12:46;;;;;;;4.95;1.40;;;39.00;6.20;;;;;;4954883;28;20650;-72
2024/01/21 02:15:14;;;;;;;8.95;1.20;;;38.90;5.60;;;;;;4955303;28;20184;-73
2024/01/21 02:17:41;;;;;;;3.45;1.27;;;39.30;5.80;;;;;;4954005;29;20786;-73
2024/01/21 02:20:09;;;;;;;5.70;1.95;;;39.20;7.10;;;;;;4954799;28;20187;-72
2024/01/21 02:22:40;;;;;;;6.22;1.60;;;39.20;6.80;;;;;;4959707;28;20350;-72
2024/01/21 02:25:08;;;;;;;4.30;1.50;;;39.30;4.30;;;;;;4961815;28;20191;-69
2024/01/21 02:27:37;;;;;;;4.45;0.90;;;39.60;3.50;;;;;;4961353;28;20800;-70
2024/01/21 02:30:05;;;;;;;2.67;1.25;;;39.50;5.70;;;;;;4974293;28;20548;-70
2024/01/21 02:32:33;;;;;;;5.13;1.40;;;39.70;1.90;;;;;;4956662;28;20187;-71
2024/01/21 02:35:00;;;;;;;4.63;1.02;;;39.80;3.10;;;;;;4954092;28;20231;-70
2024/01/21 02:37:27;;;;;;;2.45;1.02;;;39.70;3.40;;;;;;4954707;29;20267;-70
2024/01/21 02:39:55;;;;;;;3.10;1.20;;;40.00;2.00;;;;;;4954704;28;20183;-70
2024/01/21 02:42:22;;;;;;;13.65;1.92;;;39.90;3.20;;;;;;4969017;28;20234;-70
2024/01/21 02:44:50;;;;;;;7.53;1.52;;;39.50;4.60;;;;;;4966572;28;20215;-69
2024/01/21 02:47:17;;;;;;;4.35;1.30;;;39.60;3.30;;;;;;4966877;28;20218;-70
2024/01/21 02:49:45;;;;;;;2.85;0.88;;;39.70;1.60;;;;;;4973542;28;20179;-71
2024/01/21 02:52:12;;;;;;;3.75;1.10;;;40.00;1.00;;;;;;4972211;28;20183;-73
2024/01/21 02:54:39;;;;;;;3.05;1.10;;;40.20;1.00;;;;;;4975742;28;20187;-74
2024/01/21 03:00:28;;;;;;;18.60;2.25;;;39.70;1.00;;;;;;4973814;28;20699;-74
2024/01/21 03:02:56;;;;;;;20.48;2.22;;;39.30;1.00;;;;;;4973332;28;20214;-70
2024/01/21 03:05:24;;;;;;;20.90;2.28;;;39.30;1.00;;;;;;4973577;28;20179;-69
2024/01/21 03:07:51;;;;;;;3.25;1.10;;;39.30;1.00;;;;;;4973386;28;20210;-70
2024/01/21 03:10:18;;;;;;;4.68;1.02;;;39.90;1.00;;;;;;4973087;28;20179;-70
2024/01/21 03:12:46;;;;;;;4.47;0.98;;;40.10;1.00;;;;;;4971993;28;20183;-69
2024/01/21 03:15:13;;;;;;;3.88;0.82;;;40.40;1.00;;;;;;4973149;28;20183;-69
2024/01/21 03:17:40;;;;;;;3.17;0.98;;;40.60;1.00;;;;;;4972990;28;20182;-69
2024/01/21 03:20:08;;;;;;;4.28;0.85;;;40.00;1.00;;;;;;4956997;28;20226;-69
2024/01/21 03:22:35;;;;;;;5.05;1.02;;;39.70;1.00;;;;;;4970737;28;20195;-69
2024/01/21 03:25:03;;;;;;;1.75;0.90;;;40.10;1.00;;;;;;4972814;28;20171;-70
2024/01/21 03:27:30;;;;;;;1.85;1.13;;;40.10;1.00;;;;;;4972977;28;20226;-70
2024/01/21 03:29:57;;;;;;;2.20;0.80;;;40.60;1.00;;;;;;4973279;28;20262;-70
2024/01/21 03:32:24;;;;;;;5.75;1.08;;;40.50;1.00;;;;;;4957300;28;20195;-73
2024/01/21 03:34:52;;;;;;;5.10;0.95;;;40.70;1.00;;;;;;4953587;28;20595;-75
2024/01/21 03:37:19;;;;;;;3.58;1.15;;;40.80;1.00;;;;;;4953779;28;20342;-73
2024/01/21 03:39:46;;;;;;;3.25;1.40;;;40.90;1.00;;;;;;4951932;29;20222;-74
2024/01/21 03:42:14;;;;;;;2.30;1.10;;;40.80;1.00;;;;;;4954259;28;20202;-73
2024/01/21 03:44:41;;;;;;;3.30;1.08;;;40.80;1.00;;;;;;4953802;29;20713;-73
2024/01/21 03:47:09;;;;;;;2.17;0.88;;;40.90;1.00;;;;;;4953278;29;20266;-74
2024/01/21 03:49:36;;;;;;;2.33;0.88;;;41.10;1.00;;;;;;4964531;28;20190;-73
2024/01/21 03:52:04;;;;;;;2.50;0.85;;;41.40;1.00;;;;;;4961459;28;20634;-72
2024/01/21 03:54:31;;;;;;;3.05;0.82;;;41.20;1.00;;;;;;4953130;28;20183;-71
2024/01/21 03:56:58;;;;;;;5.63;0.80;;;41.20;1.00;;;;;;4967454;28;20193;-73
2024/01/21 03:59:25;;;;;;;1.90;0.73;;;41.40;1.00;;;;;;4973113;28;20206;-74
2024/01/21 04:01:53;;;;;;;1.63;0.70;;;41.50;1.00;;;;;;4970251;28;20192;-73
2024/01/21 04:04:20;;;;;;;2.75;0.90;;;41.10;1.00;;;;;;4960625;28;20791;-74
2024/01/21 04:06:48;;;;;;;1.75;0.70;;;40.70;1.00;;;;;;4953534;28;20207;-71
2024/01/21 04:09:19;;;;;;;4.13;0.90;;;40.70;1.00;;;;;;4963415;28;20225;-73
2024/01/21 04:11:47;;;;;;;5.15;0.80;;;40.80;1.00;;;;;;4972784;28;20633;-74
2024/01/21 04:14:14;;;;;;;4.70;0.50;;;41.10;1.00;;;;;;4964021;28;20214;-72
2024/01/21 04:16:41;;;;;;;3.15;0.80;;;41.30;1.00;;;;;;4953124;28;20172;-73
2024/01/21 04:19:09;;;;;;;6.88;0.95;;;41.50;1.00;;;;;;4951870;29;20251;-71
2024/01/21 04:21:39;;;;;;;2.70;0.50;;;41.60;1.00;;;;;;4953465;28;20695;-74
2024/01/21 04:24:06;;;;;;;4.03;0.80;;;41.50;1.00;;;;;;4953429;28;20653;-74
2024/01/21 04:26:34;;;;;;;4.90;0.80;;;41.50;1.00;;;;;;4957737;28;20606;-71
2024/01/21 04:29:01;;;;;;;4.28;0.80;;;41.60;1.00;;;;;;4970518;28;20818;-73
2024/01/21 04:31:28;;;;;;;3.00;0.55;;;41.80;1.00;;;;;;4972376;28;20704;-71
2024/01/21 04:33:55;;;;;;;8.38;1.67;;;41.90;1.00;;;;;;4966670;28;20188;-70
2024/01/21 04:36:23;;;;;;;1.77;0.60;;;41.80;1.00;;;;;;4952968;28;20382;-70
2024/01/21 04:38:50;;;;;;;3.38;0.50;;;41.90;1.00;;;;;;4952804;29;20180;-71
2024/01/21 04:41:17;;;;;;;1.77;0.68;;;41.60;1.00;;;;;;4956114;28;20187;-70
2024/01/21 04:43:45;;;;;;;4.55;0.52;;;41.70;1.00;;;;;;4968722;28;20180;-74
2024/01/21 04:46:12;;;;;;;12.63;0.70;;;41.60;1.00;;;;;;4952829;29;20179;-75
2024/01/21 04:48:40;;;;;;;1.25;0.45;;;41.50;1.00;;;;;;4952711;28;20223;-73
2024/01/21 04:51:07;;;;;;;3.90;0.50;;;41.40;1.00;;;;;;4954964;28;20185;-73
2024/01/21 04:53:37;;;;;;;3.42;0.77;;;41.70;1.00;;;;;;4969675;28;20202;-73
2024/01/21 04:56:05;;;;;;;5.10;0.52;;;41.50;1.00;;;;;;4951822;28;20404;-74
2024/01/21 04:58:33;;;;;;;1.73;0.50;;;41.70;1.00;;;;;;4952847;29;20176;-70
2024/01/21 05:01:00;;;;;;;4.00;0.45;;;41.80;1.00;;;;;;4956258;28;20211;-69
2024/01/21 05:03:28;;;;;;;1.70;0.60;;;41.70;1.00;;;;;;4970125;28;20673;-70
2024/01/21 05:05:57;;;;;;;1.90;0.40;;;41.80;1.00;;;;;;4966917;28;20202;-70
2024/01/21 05:08:24;;;;;;;2.38;0.50;;;41.60;1.00;;;;;;4954457;28;20224;-71
2024/01/21 05:10:51;;;;;;;4.00;1.02;;;41.40;1.00;;;;;;4971822;28;20186;-69
2024/01/21 05:13:19;;;;;;;4.88;0.75;;;41.50;1.00;;;;;;4957964;28;20192;-70
2024/01/21 05:15:46;;;;;;;3.72;0.70;;;41.50;1.00;;;;;;4953778;28;20255;-69
2024/01/21 05:18:14;;;;;;;3.40;0.68;;;41.80;1.00;;;;;;4967949;28;20287;-71
2024/01/21 05:20:41;;;;;;;7.10;0.70;;;41.70;1.00;;;;;;4972750;28;20644;-68
2024/01/21 05:23:09;;;;;;;1.55;0.60;;;41.60;1.00;;;;;;4956323;28;20176;-70
2024/01/21 05:25:36;;;;;;;3.17;0.70;;;41.60;1.00;;;;;;4955876;28;20199;-72
2024/01/21 05:28:04;;;;;;;2.60;0.70;;;41.60;1.00;;;;;;4956417;28;20231;-71
2024/01/21 05:30:31;;;;;;;1.30;0.43;;;41.70;1.00;;;;;;4956448;28;20779;-70
2024/01/21 05:32:58;;;;;;;4.97;0.60;;;41.50;1.00;;;;;;4955364;28;20239;-71
2024/01/21 05:35:25;;;;;;;3.10;0.68;;;41.40;1.00;;;;;;4955923;28;20228;-70
2024/01/21 05:37:53;;;;;;;3.42;0.65;;;41.40;1.00;;;;;;4955947;28;20495;-69
2024/01/21 05:40:20;;;;;;;3.92;0.50;;;41.60;1.00;;;;;;4956219;28;20238;-69
2024/01/21 05:42:47;;;;;;;3.88;0.50;;;41.50;1.00;;;;;;4975175;28;20199;-69
2024/01/21 05:45:14;;;;;;;2.85;0.82;;;41.40;1.00;;;;;;4975226;28;21032;-69
2024/01/21 05:47:42;;;;;;;3.33;0.60;;;41.50;1.00;;;;;;4974450;28;20230;-69
2024/01/21 05:50:09;;;;;;;8.45;0.57;;;41.30;1.00;;;;;;4974266;28;20323;-70
2024/01/21 05:52:37;;;;;;;4.00;0.50;;;41.00;1.00;;;;;;4955541;28;20674;-69
2024/01/21 05:55:05;;;;;;;5.50;0.95;;;41.10;1.00;;;;;;4955264;28;20222;-69
2024/01/21 05:57:32;;;;;;;3.75;0.60;;;40.90;1.00;;;;;;4955905;28;20188;-69
2024/01/21 06:00:00;;;;;;;4.32;0.70;;;41.00;1.00;;;;;;4955587;28;20176;-69
2024/01/21 06:02:27;;;;;;;4.05;0.70;;;41.10;1.00;;;;;;4972859;28;20271;-70
2024/01/21 06:04:54;;;;;;;1.52;0.50;;;41.10;1.00;;;;;;4974619;28;20194;-72
2024/01/21 06:07:22;;;;;;;3.63;0.50;;;41.00;1.00;;;;;;4973838;28;20211;-72
2024/01/21 06:09:49;;;;;;;3.72;0.75;;;40.60;1.00;;;;;;4974297;28;20269;-73
2024/01/21 06:12:16;;;;;;;4.00;0.98;;;40.60;1.00;;;;;;4957495;28;20184;-72
2024/01/21 06:14:46;;;;;;;4.20;0.60;;;40.50;1.00;;;;;;4956724;28;20653;-67
2024/01/21 06:17:13;;;;;;;2.05;0.65;;;40.30;1.00;;;;;;4973594;28;20198;-74
2024/01/21 06:19:41;;;;;;;1.85;0.50;;;40.60;1.00;;;;;;4974357;28;20183;-70
2024/01/21 06:22:08;;;;;;;5.95;0.40;;;40.90;1.00;;;;;;4974303;28;20175;-69
2024/01/21 06:24:37;;;;;;;4.57;0.50;;;40.40;1.00;;;;;;4973542;28;20301;-68
2024/01/21 06:27:05;;;;;;;4.10;0.30;;;39.90;1.00;;;;;;4964821;28;20239;-68
2024/01/21 06:29:32;;;;;;;3.30;0.50;;;40.00;1.00;;;;;;4954881;28;20191;-69
2024/01/21 06:32:00;;;;;;;0.47;0.47;;;40.20;1.00;;;;;;4953410;28;20195;-68
2024/01/21 06:34:27;;;;;;;5.40;0.50;;;40.20;1.00;;;;;;4954665;28;20630;-69
2024/01/21 06:36:54;;;;;;;2.35;0.80;;;40.40;1.00;;;;;;4971273;28;20199;-72
2024/01/21 06:39:22;;;;;;;1.42;0.40;;;40.60;1.00;;;;;;4957003;28;20191;-74
2024/01/21 06:41:49;;;;;;;1.30;0.38;;;40.60;1.00;;;;;;4956462;28;20178;-71
2024/01/21 06:44:16;;;;;;;6.97;0.50;;;40.20;1.00;;;;;;4939907;28;20266;-72
2024/01/21 06:46:44;;;;;;;1.88;0.50;;;40.10;1.00;;;;;;4952727;28;20302;-69
2024/01/21 06:49:11;;;;;;;1.80;0.63;;;39.90;1.00;;;;;;4965438;28;20187;-70
2024/01/21 06:51:53;;;;;;;5.22;0.70;;;39.90;1.00;;;;;;4963333;28;20180;-69
2024/01/21 06:54:21;;;;;;;2.70;0.40;;;40.00;1.00;;;;;;4961804;28;20562;-69
2024/01/21 06:56:48;;;;;;;1.90;0.30;;;40.30;1.00;;;;;;4963502;28;20230;-68
2024/01/21 06:59:15;;;;;;;4.50;0.70;;;40.40;1.00;;;;;;4960926;28;20184;-77
2024/01/21 07:01:43;;;;;;;1.20;0.50;;;40.60;1.00;;;;;;4961090;28;20179;-71
2024/01/21 07:04:10;;;;;;;4.50;0.93;;;40.50;1.00;;;;;;4966141;28;20184;-74
2024/01/21 07:06:39;;;;;;;2.50;0.40;;;40.40;1.00;;;;;;4963085;28;20189;-70
2024/01/21 07:09:06;;;;;;;2.90;0.38;;;40.50;1.00;;;;;;4973537;28;20183;-71
2024/01/21 07:11:35;;;;;;;2.35;0.63;;;40.50;1.00;;;;;;4973769;28;20186;-69
2024/01/21 07:14:03;;;;;;;3.33;0.70;;;40.70;1.00;;;;;;4970716;28;20276;-74
2024/01/21 07:16:31;;;;;;;2.60;0.43;;;40.50;1.00;;;;;;4959810;28;20188;-75
2024/01/21 07:18:59;;;;;;;2.55;0.60;;;40.30;1.00;;;;;;4963319;28;20245;-74
2024/01/21 07:21:27;;;;;;;4.72;0.73;;;40.10;1.00;;;;;;4959441;28;20210;-75
2024/01/21 07:23:55;;;;;;;1.42;0.40;;;40.10;1.00;;;;;;4961327;28;20254;-75
2024/01/21 07:26:23;;;;;;;6.45;0.40;;;40.10;1.00;;;;;;4965267;28;20223;-69
2024/01/21 07:28:51;;;;;;;1.77;0.50;;;40.10;1.00;;;;;;4961200;28;20277;-69
2024/01/21 07:31:18;;;;;;;6.25;0.50;;;40.00;1.00;;;;;;4973256;28;20254;-69
2024/01/21 07:33:46;;;;;;;0.90;0.22;;;39.70;1.00;;;;;;4968507;28;20188;-70
2024/01/21 07:36:13;;;;;;;1.08;0.52;;;39.70;1.00;;;;;;4964112;28;20222;-71
2024/01/21 07:38:40;;;;;;;4.40;0.80;;;39.70;1.00;;;;;;4972793;28;20671;-70
2024/01/21 07:41:07;;;;;;;3.30;0.63;;;39.50;1.00;;;;;;4968067;28;20595;-69
2024/01/21 07:43:35;;;;;;;3.33;0.65;;;39.40;1.00;;;;;;4953844;28;20183;-69
2024/01/21 07:46:02;;;;;;;1.15;0.38;;;39.20;1.00;;;;;;4972933;28;20183;-69
2024/01/21 07:48:30;;;;;;;4.68;0.52;;;39.20;1.00;;;;;;4973023;28;20215;-69
2024/01/21 07:50:57;;;;;;;2.53;0.70;;;39.10;1.00;;;;;;4957641;28;20677;-69
2024/01/21 07:53:25;;;;;;;3.33;0.63;;;39.10;1.00;;;;;;4963742;28;20190;-69
2024/01/21 07:55:54;;;;;;;2.83;0.40;;;39.10;1.00;;;;;;4970913;28;20182;-68
2024/01/21 07:58:21;;;;;;;1.63;0.60;;;39.00;1.00;;;;;;4967442;28;20198;-69
2024/01/21 08:00:48;;;;;;;4.95;0.73;;;39.00;1.00;;;;;;4958593;28;20217;-71
2024/01/21 08:03:17;;;;;;;3.13;0.60;;;38.90;1.00;;;;;;4971392;28;20194;-69
2024/01/21 08:05:45;;;;;;;0.90;0.38;;;38.90;1.00;;;;;;4972215;28;20171;-69
2024/01/21 08:08:13;;;;;;;1.55;0.40;;;38.90;1.00;;;;;;4972719;28;20211;-69
2024/01/21 08:10:40;;;;;;;2.53;0.40;;;38.80;1.00;;;;;;4973971;28;20687;-69
2024/01/21 08:13:07;;;;;;;2.08;0.50;;;38.80;1.00;;;;;;4960089;28;20187;-70
2024/01/21 08:15:35;;;;;;;3.60;0.30;;;38.70;1.00;;;;;;4961079;28;20375;-68
2024/01/21 08:18:02;;;;;;;4.32;0.65;;;38.70;1.00;;;;;;4974325;28;20207;-69
2024/01/21 08:20:30;;;;;;;2.22;0.65;;;38.60;1.00;;;;;;4974203;28;20287;-69
2024/01/21 08:22:57;;;;;;;2.55;0.47;;;38.60;1.00;;;;;;4974089;28;20187;-69
2024/01/21 08:25:24;;;;;;;0.90;0.45;;;38.50;1.00;;;;;;4955187;28;20263;-69
2024/01/21 08:27:51;;;;;;;1.23;0.43;;;38.40;1.00;;;;;;4954739;28;20212;-68
2024/01/21 08:30:19;;;;;;;3.20;0.73;;;38.20;1.00;;;;;;4954893;28;20200;-69
2024/01/21 08:32:46;;;;;;;2.05;0.70;;;38.00;1.00;;;;;;4954998;28;20202;-69
2024/01/21 08:35:14;;;;;;;3.25;0.50;;;37.80;1.00;;;;;;4973448;28;20219;-69
2024/01/21 08:37:41;;;;;;;1.38;0.47;;;37.70;1.00;;;;;;4973999;28;20207;-69
2024/01/21 08:40:09;;;;;;;5.35;0.90;;;37.50;1.00;;;;;;4973725;28;20239;-69
2024/01/21 08:42:37;;;;;;;2.97;0.80;;;37.30;1.00;;;;;;4973891;28;20660;-69
2024/01/21 08:45:04;;;;;;;1.35;0.40;;;37.20;1.00;;;;;;4973208;28;20550;-68
2024/01/21 08:47:32;;;;;;;3.17;0.65;;;37.10;1.00;;;;;;4973805;28;20701;-69
2024/01/21 08:50:00;;;;;;;1.95;0.65;;;36.90;1.00;;;;;;4974104;28;20231;-69
2024/01/21 08:52:27;;;;;;;1.88;0.68;;;36.70;1.00;;;;;;4977397;28;20180;-69
2024/01/21 08:54:54;;;;;;;5.28;0.85;;;36.60;1.00;;;;;;4977716;28;20206;-69
2024/01/21 08:57:22;;;;;;;1.02;0.40;;;36.50;1.00;;;;;;4977553;28;20179;-69
2024/01/21 08:59:51;;;;;;;4.90;0.90;;;36.40;1.00;;;;;;4977537;28;20233;-68
2024/01/21 09:02:18;;;;;;;2.47;0.63;;;36.20;1.00;;;;;;4977295;28;20172;-69
2024/01/21 09:04:46;;;;;;;1.15;0.50;;;36.00;1.00;;;;;;4977324;28;20191;-70
2024/01/21 09:07:13;;;;;;;1.83;0.40;;;36.00;1.00;;;;;;4977290;28;20207;-69
2024/01/21 09:09:40;;;;;;;2.10;0.47;;;35.90;1.00;;;;;;4977514;28;20175;-68
2024/01/21 09:12:08;;;;;;;1.70;0.40;;;35.70;1.00;;;;;;4977170;28;20539;-69
2024/01/21 09:17:58;;;;;;;2.03;0.80;;;35.40;1.00;;;;;;4976839;28;20253;-75
2024/01/21 09:20:26;;;;;;;4.13;0.55;;;35.20;1.00;;;;;;4964255;28;20661;-75
2024/01/21 09:22:53;;;;;;;3.20;1.08;;;35.20;1.00;;;;;;4976928;28;20171;-74
2024/01/21 09:25:20;;;;;;;1.42;0.70;;;35.10;1.00;;;;;;4972596;28;20214;-74
2024/01/21 09:27:48;;;;;;;3.92;0.73;;;34.80;1.00;;;;;;4967346;28;20311;-74
2024/01/21 09:30:16;;;;;;;2.30;0.82;;;34.50;1.00;;;;;;4965707;28;20191;-69
2024/01/21 09:32:43;;;;;;;4.63;0.60;;;34.40;1.00;;;;;;4959217;28;20211;-69
2024/01/21 09:35:10;;;;;;;5.22;0.90;;;34.20;1.00;;;;;;4958606;28;20222;-70
2024/01/21 09:37:38;;;;;;;2.80;1.00;;;34.30;1.00;;;;;;4976674;28;20175;-70
2024/01/21 09:40:06;;;;;;;1.60;1.00;;;34.20;1.00;;;;;;4980566;28;20712;-70
2024/01/21 09:42:33;;;;;;;3.63;1.73;;;34.00;1.00;;;;;;4960687;28;20183;-75
2024/01/21 09:45:00;;;;;;;4.60;2.00;;;33.80;1.00;;;;;;4977212;28;20187;-69
2024/01/21 09:47:28;;;;;;;1.73;0.80;;;33.60;1.00;;;;;;4976773;28;20250;-73
2024/01/21 09:49:58;;;;;;;3.88;0.77;;;33.40;1.00;;;;;;4976759;28;20235;-73
2024/01/21 09:52:25;;;;;;;1.85;0.50;;;33.30;1.00;;;;;;4976496;28;20179;-75
2024/01/21 09:54:53;;;;;;;3.55;1.67;;;33.10;1.00;;;;;;4976492;28;20175;-68
2024/01/21 09:57:21;;;;;;;4.35;1.08;;;33.00;1.00;;;;;;4976464;28;20191;-71
2024/01/21 09:59:48;;;;;;;3.03;0.60;;;32.90;1.00;;;;;;4976514;28;20180;-71
2024/01/21 10:02:17;;;;;;;4.57;0.70;;;32.90;1.00;;;;;;4972065;28;20191;-69
2024/01/21 10:04:47;;;;;;;3.35;0.73;;;32.80;1.00;;;;;;4974207;28;20183;-70
2024/01/21 10:07:14;;;;;;;4.47;1.58;;;32.80;1.00;;;;;;4976362;28;20215;-73
2024/01/21 10:09:42;;;;;;;4.15;1.85;;;32.70;1.00;;;;;;4973399;28;20641;-75
2024/01/21 10:12:09;;;;;;;4.55;1.75;;;32.60;1.00;;;;;;4976389;28;20195;-74
2024/01/21 10:14:37;;;;;;;6.47;1.92;;;32.60;1.00;;;;;;4976187;28;20176;-77
2024/01/21 10:17:04;;;;;;;4.03;1.38;;;32.50;1.00;;;;;;4976260;28;20183;-75
2024/01/21 10:19:33;;;;;;;6.10;2.00;;;32.30;1.00;;;;;;4976243;28;20183;-75
2024/01/21 10:22:13;;;;;;;1.48;0.77;;;32.30;1.00;;;;;;4976196;28;20175;-76
2024/01/21 10:24:41;;;;;;;5.47;2.60;;;32.20;1.00;;;;;;4976296;28;20171;-74
2024/01/21 10:27:09;;;;;;;6.45;1.90;;;32.10;1.00;;;;;;4976033;28;20199;-76
2024/01/21 10:29:46;;;;;;;2.25;1.20;;;32.00;1.00;;;;;;4976139;28;20546;-72
2024/01/21 10:32:18;;;;;;;3.28;1.23;;;32.00;1.00;;;;;;4975908;28;20179;-77
2024/01/21 10:34:49;;;;;;;5.07;1.17;;;31.90;1.00;;;;;;4975986;28;20714;-73
2024/01/21 10:37:17;;;;;;;2.92;1.35;;;31.90;1.00;;;;;;4975442;28;20191;-69
2024/01/21 10:39:48;;;;;;;4.72;1.08;;;31.70;1.00;;;;;;4975874;28;20199;-78
2024/01/21 10:42:16;;;;;;;2.85;1.08;;;31.60;1.00;;;;;;4975679;28;20183;-76
2024/01/21 10:44:47;;;;;;;3.90;1.10;;;31.50;1.00;;;;;;4975685;28;20226;-77
2024/01/21 10:47:16;;;;;;;3.92;1.30;;;31.50;3.30;;;;;;4975594;28;20557;-71
2024/01/21 10:49:44;;;;;;;5.05;1.50;;;31.40;5.00;;;;;;4975704;28;20193;-75
2024/01/21 10:52:14;;;;;;;4.85;1.20;;;31.40;3.90;;;;;;4975438;28;20182;-75
2024/01/21 10:54:42;;;;;;;1.80;1.00;;;31.40;8.00;;;;;;4975456;28;20202;-77
2024/01/21 10:57:09;;;;;;;2.95;0.93;;;31.20;9.30;;;;;;4975211;28;20207;-70
2024/01/21 10:59:38;;;;;;;3.28;1.00;;;31.10;7.60;;;;;;4975888;28;20664;-71
2024/01/21 11:02:08;;;;;;;7.50;1.27;;;31.10;7.90;;;;;;4974212;28;20183;-75
2024/01/21 11:04:38;;;;;;;4.18;0.80;;;31.00;12.10;;;;;;4975353;28;20614;-77
2024/01/21 11:07:06;;;;;;;7.28;1.70;;;31.00;19.20;;;;;;4974177;28;20223;-70
2024/01/21 11:09:36;;;;;;;17.58;4.43;;;30.90;15.10;;;;;;4975286;28;20230;-72
2024/01/21 11:12:03;;;;;;;29.35;6.40;;;30.50;99.90;;;;;;4975147;28;20191;-70
2024/01/21 11:14:39;;;;;;;31.30;6.37;;;30.00;99.90;;;;;;4973763;28;20226;-69
2024/01/21 11:17:10;;;;;;;27.87;7.30;;;29.00;99.90;;;;;;4975066;28;20537;-69
2024/01/21 11:19:53;;;;;;;33.43;7.40;;;28.40;99.90;;;;;;4975365;28;20194;-78
2024/01/21 11:22:25;;;;;;;28.40;7.00;;;28.00;99.90;;;;;;4972408;28;20548;-77
2024/01/21 11:24:55;;;;;;;32.83;7.90;;;27.60;99.90;;;;;;4967286;28;20209;-75
2024/01/21 11:27:24;;;;;;;30.90;6.87;;;27.30;99.90;;;;;;4975148;28;20233;-76
2024/01/21 11:33:22;;;;;;;33.47;7.83;;;26.70;99.90;;;;;;4974566;28;20202;-71
2024/01/21 11:35:50;;;;;;;36.63;7.90;;;26.50;99.90;;;;;;4974902;28;20227;-71
2024/01/21 11:38:17;;;;;;;32.10;8.23;;;26.40;99.90;;;;;;4975015;28;20182;-70
2024/01/21 11:40:45;;;;;;;36.83;7.77;;;26.30;99.90;;;;;;4975037;28;20260;-75
2024/01/21 11:43:12;;;;;;;41.23;8.10;;;26.10;99.90;;;;;;4974840;28;20236;-72
2024/01/21 11:45:40;;;;;;;34.50;7.57;;;25.90;99.90;;;;;;4974765;28;20275;-77
2024/01/21 11:48:13;;;;;;;34.17;7.87;;;25.80;99.90;;;;;;4973525;28;20222;-70
2024/01/21 11:50:40;;;;;;;43.80;7.53;;;25.70;99.90;;;;;;4974836;28;20168;-73
2024/01/21 11:53:08;;;;;;;28.33;6.33;;;25.60;99.90;;;;;;4962870;28;20246;-70
2024/01/21 11:55:35;;;;;;;37.67;7.43;;;25.40;99.90;;;;;;4961538;28;20345;-76
2024/01/21 11:58:02;;;;;;;32.20;6.73;;;25.40;99.90;;;;;;4960340;28;20204;-73
2024/01/21 12:00:30;;;;;;;31.87;7.77;;;25.40;99.90;;;;;;4958402;28;20259;-69
2024/01/21 12:02:57;;;;;;;28.80;6.67;;;25.30;99.90;;;;;;4966698;28;20185;-69
2024/01/21 12:05:25;;;;;;;25.50;6.80;;;25.20;99.90;;;;;;4960411;28;20259;-69
2024/01/21 12:07:53;;;;;;;27.27;6.97;;;25.20;99.90;;;;;;4960019;28;20211;-70
2024/01/21 12:10:21;;;;;;;29.53;7.43;;;25.10;99.90;;;;;;4955242;28;20255;-69
2024/01/21 12:12:49;;;;;;;33.53;7.30;;;25.10;99.90;;;;;;4955085;28;20235;-69
2024/01/21 12:15:17;;;;;;;38.50;8.47;;;25.10;99.90;;;;;;4972801;28;20183;-69
2024/01/21 12:17:54;;;;;;;32.27;7.03;;;25.00;99.90;;;;;;4971387;28;20208;-69
2024/01/21 12:20:21;;;;;;;42.83;8.27;;;25.00;99.90;;;;;;4968414;28;20629;-68
2024/01/21 12:22:50;;;;;;;38.80;8.03;;;24.90;99.90;;;;;;4973518;28;20183;-70
2024/01/21 12:29:00;;;;;;;23.00;6.80;;;24.70;99.90;;;;;;4961532;28;20242;-69
2024/01/21 12:31:35;;;;;;;40.83;7.90;;;24.60;99.90;;;;;;4971234;28;20252;-69
2024/01/21 12:34:08;;;;;;;32.60;7.43;;;24.60;99.90;;;;;;4965889;28;20187;-70
2024/01/21 12:36:41;;;;;;;33.20;7.40;;;24.60;99.90;;;;;;4963424;28;20236;-70
2024/01/21 12:39:16;;;;;;;40.60;8.40;;;24.40;99.90;;;;;;4961018;28;20183;-69
2024/01/21 12:41:44;;;;;;;43.17;8.27;;;24.40;99.90;;;;;;4960121;28;20672;-72
2024/01/21 12:44:11;;;;;;;29.00;6.73;;;24.30;99.90;;;;;;4959035;28;20238;-69
2024/01/21 12:46:38;;;;;;;37.30;6.97;;;24.20;99.90;;;;;;4967399;28;20585;-70
2024/01/21 12:49:06;;;;;;;39.90;8.97;;;24.20;99.90;;;;;;4976278;28;20674;-72
2024/01/21 12:51:34;;;;;;;31.77;7.17;;;24.20;99.90;;;;;;4959147;28;20223;-70
2024/01/21 12:54:02;;;;;;;29.07;7.17;;;24.20;99.90;;;;;;4965784;28;20278;-70
2024/01/21 12:56:29;;;;;;;32.03;7.37;;;24.10;99.90;;;;;;4977400;28;20183;-70
2024/01/21 12:58:56;;;;;;;41.87;8.00;;;24.10;99.90;;;;;;4975940;28;20218;-70
2024/01/21 13:01:24;;;;;;;30.67;7.43;;;24.10;99.90;;;;;;4976777;28;20237;-70
2024/01/21 13:03:54;;;;;;;33.37;7.33;;;24.10;99.90;;;;;;4975720;28;20198;-71
2024/01/21 13:06:21;;;;;;;37.50;7.30;;;24.00;99.90;;;;;;4977066;28;20179;-70
2024/01/21 13:08:49;;;;;;;31.77;7.83;;;24.00;99.90;;;;;;4977394;28;20273;-70
2024/01/21 13:11:17;;;;;;;43.47;8.83;;;23.90;99.90;;;;;;4974664;28;20206;-70
2024/01/21 13:13:45;;;;;;;34.20;7.83;;;23.80;99.90;;;;;;4958119;28;20188;-70